sensor_id;sensor_type;location;lat;lon;timestamp;pressure;altitude;pressure_sealevel;temperature;humidity
25238;BME280;13185;50.872;5.306;2024-03-08T00:02:03;101284.53;;;4.73;91.57
25238;BME280;13185;50.872;5.306;2024-03-08T00:04:29;101284.47;;;4.75;91.65
25238;BME280;13185;50.872;5.306;2024-03-08T00:06:54;101275.63;;;4.74;91.56
25238;BME280;13185;50.872;5.306;2024-03-08T00:09:20;101276.66;;;4.70;91.01
25238;BME280;13185;50.872;5.306;2024-03-08T00:11:47;101271.44;;;4.67;91.08
25238;BME280;13185;50.872;5.306;2024-03-08T00:14:14;101273.28;;;4.65;90.81
25238;BME280;13185;50.872;5.306;2024-03-08T00:16:39;101270.75;;;4.62;90.98
25238;BME280;13185;50.872;5.306;2024-03-08T00:19:09;101274.38;;;4.59;91.06
25238;BME280;13185;50.872;5.306;2024-03-08T00:21:35;101262.91;;;4.57;90.98
25238;BME280;13185;50.872;5.306;2024-03-08T00:24:01;101271.75;;;4.58;90.84
25238;BME280;13185;50.872;5.306;2024-03-08T00:26:26;101262.03;;;4.57;90.62
25238;BME280;13185;50.872;5.306;2024-03-08T00:28:52;101267.34;;;4.57;90.69
25238;BME280;13185;50.872;5.306;2024-03-08T00:31:19;101260.34;;;4.54;90.10
25238;BME280;13185;50.872;5.306;2024-03-08T00:33:45;101260.34;;;4.54;90.24
25238;BME280;13185;50.872;5.306;2024-03-08T00:36:11;101258.69;;;4.52;90.11
25238;BME280;13185;50.872;5.306;2024-03-08T00:38:36;101255.16;;;4.51;89.74
25238;BME280;13185;50.872;5.306;2024-03-08T00:41:02;101261.41;;;4.50;89.66
25238;BME280;13185;50.872;5.306;2024-03-08T00:43:27;101264.09;;;4.49;89.47
25238;BME280;13185;50.872;5.306;2024-03-08T00:45:55;101256.31;;;4.43;89.43
25238;BME280;13185;50.872;5.306;2024-03-08T00:48:21;101256.44;;;4.40;89.72
25238;BME280;13185;50.872;5.306;2024-03-08T00:50:47;101254.78;;;4.35;89.78
25238;BME280;13185;50.872;5.306;2024-03-08T00:53:13;101251.31;;;4.33;89.68
25238;BME280;13185;50.872;5.306;2024-03-08T00:55:39;101241.78;;;4.28;89.41
25238;BME280;13185;50.872;5.306;2024-03-08T00:58:05;101253.41;;;4.24;89.44
25238;BME280;13185;50.872;5.306;2024-03-08T01:00:30;101246.31;;;4.24;89.77
25238;BME280;13185;50.872;5.306;2024-03-08T01:02:56;101249.94;;;4.22;89.68
25238;BME280;13185;50.872;5.306;2024-03-08T01:05:22;101240.22;;;4.21;89.73
25238;BME280;13185;50.872;5.306;2024-03-08T01:07:50;101245.66;;;4.18;89.95
25238;BME280;13185;50.872;5.306;2024-03-08T01:10:16;101250.09;;;4.17;90.00
25238;BME280;13185;50.872;5.306;2024-03-08T01:12:41;101251.03;;;4.15;90.28
25238;BME280;13185;50.872;5.306;2024-03-08T01:15:09;101251.13;;;4.12;90.29
25238;BME280;13185;50.872;5.306;2024-03-08T01:17:35;101240.69;;;4.07;90.48
25238;BME280;13185;50.872;5.306;2024-03-08T01:20:02;101228.41;;;4.03;90.99
25238;BME280;13185;50.872;5.306;2024-03-08T01:22:28;101236.47;;;4.00;90.89
25238;BME280;13185;50.872;5.306;2024-03-08T01:24:55;101227.69;;;3.98;90.95
25238;BME280;13185;50.872;5.306;2024-03-08T01:27:21;101228.56;;;3.98;91.49
25238;BME280;13185;50.872;5.306;2024-03-08T01:29:47;101223.25;;;3.98;91.58
25238;BME280;13185;50.872;5.306;2024-03-08T01:32:13;101226.72;;;4.00;91.61
25238;BME280;13185;50.872;5.306;2024-03-08T01:34:38;101217.94;;;3.98;91.17
25238;BME280;13185;50.872;5.306;2024-03-08T01:37:05;101217.16;;;3.95;91.18
25238;BME280;13185;50.872;5.306;2024-03-08T01:39:32;101201.47;;;3.89;91.46
25238;BME280;13185;50.872;5.306;2024-03-08T01:41:58;101206.88;;;3.84;91.78
25238;BME280;13185;50.872;5.306;2024-03-08T01:44:23;101205.16;;;3.83;92.06
25238;BME280;13185;50.872;5.306;2024-03-08T01:46:50;101214.09;;;3.81;92.00
25238;BME280;13185;50.872;5.306;2024-03-08T01:49:18;101209.59;;;3.83;92.38
25238;BME280;13185;50.872;5.306;2024-03-08T01:51:47;101203.47;;;3.81;92.14
25238;BME280;13185;50.872;5.306;2024-03-08T01:54:14;101194.69;;;3.79;92.45
25238;BME280;13185;50.872;5.306;2024-03-08T01:56:40;101200.06;;;3.77;92.63
25238;BME280;13185;50.872;5.306;2024-03-08T01:59:06;101192.91;;;3.79;92.51
25238;BME280;13185;50.872;5.306;2024-03-08T02:01:33;101187.59;;;3.79;92.44
25238;BME280;13185;50.872;5.306;2024-03-08T02:03:59;101191.25;;;3.75;92.21
25238;BME280;13185;50.872;5.306;2024-03-08T02:06:24;101183.28;;;3.75;92.45
25238;BME280;13185;50.872;5.306;2024-03-08T02:08:50;101185.13;;;3.73;92.53
25238;BME280;13185;50.872;5.306;2024-03-08T02:11:16;101181.78;;;3.68;92.61
25238;BME280;13185;50.872;5.306;2024-03-08T02:13:42;101182.88;;;3.61;92.54
25238;BME280;13185;50.872;5.306;2024-03-08T02:16:08;101173.19;;;3.60;93.49
25238;BME280;13185;50.872;5.306;2024-03-08T02:18:34;101172.41;;;3.56;93.32
25238;BME280;13185;50.872;5.306;2024-03-08T02:21:03;101164.53;;;3.53;93.41
25238;BME280;13185;50.872;5.306;2024-03-08T02:23:29;101166.47;;;3.48;93.86
25238;BME280;13185;50.872;5.306;2024-03-08T02:25:56;101158.63;;;3.43;94.01
25238;BME280;13185;50.872;5.306;2024-03-08T02:28:22;101161.34;;;3.42;94.59
25238;BME280;13185;50.872;5.306;2024-03-08T02:30:52;101157.00;;;3.39;94.67
25238;BME280;13185;50.872;5.306;2024-03-08T02:33:24;101152.63;;;3.38;94.69
25238;BME280;13185;50.872;5.306;2024-03-08T02:35:50;101152.69;;;3.37;95.08
25238;BME280;13185;50.872;5.306;2024-03-08T02:38:17;101146.56;;;3.35;94.95
25238;BME280;13185;50.872;5.306;2024-03-08T02:40:44;101148.41;;;3.31;95.34
25238;BME280;13185;50.872;5.306;2024-03-08T02:43:12;101150.25;;;3.29;95.52
25238;BME280;13185;50.872;5.306;2024-03-08T02:45:37;101143.97;;;3.32;95.80
25238;BME280;13185;50.872;5.306;2024-03-08T02:48:04;101137.03;;;3.28;95.80
25238;BME280;13185;50.872;5.306;2024-03-08T02:50:32;101141.53;;;3.26;95.94
25238;BME280;13185;50.872;5.306;2024-03-08T02:52:58;101132.75;;;3.24;95.70
25238;BME280;13185;50.872;5.306;2024-03-08T02:55:24;101129.25;;;3.22;96.06
25238;BME280;13185;50.872;5.306;2024-03-08T02:57:52;101125.75;;;3.21;96.39
25238;BME280;13185;50.872;5.306;2024-03-08T03:00:20;101119.63;;;3.19;96.23
25238;BME280;13185;50.872;5.306;2024-03-08T03:02:47;101131.25;;;3.15;96.32
25238;BME280;13185;50.872;5.306;2024-03-08T03:05:12;101123.41;;;3.10;96.48
25238;BME280;13185;50.872;5.306;2024-03-08T03:07:38;101123.41;;;3.10;96.72
25238;BME280;13185;50.872;5.306;2024-03-08T03:10:04;101124.28;;;3.11;97.13
25238;BME280;13185;50.872;5.306;2024-03-08T03:12:31;101112.91;;;3.07;97.16
25238;BME280;13185;50.872;5.306;2024-03-08T03:14:57;101115.53;;;3.09;97.50
25238;BME280;13185;50.872;5.306;2024-03-08T03:17:23;101117.25;;;3.10;97.35
25238;BME280;13185;50.872;5.306;2024-03-08T03:19:50;101111.19;;;3.06;97.17
25238;BME280;13185;50.872;5.306;2024-03-08T03:22:17;101113.94;;;3.03;97.25
25238;BME280;13185;50.872;5.306;2024-03-08T03:24:44;101104.28;;;3.01;97.12
25238;BME280;13185;50.872;5.306;2024-03-08T03:27:12;101106.00;;;3.02;97.26
25238;BME280;13185;50.872;5.306;2024-03-08T03:29:42;101109.56;;;3.01;97.44
25238;BME280;13185;50.872;5.306;2024-03-08T03:32:11;101099.03;;;2.99;97.50
25238;BME280;13185;50.872;5.306;2024-03-08T03:34:38;101097.25;;;3.00;97.63
25238;BME280;13185;50.872;5.306;2024-03-08T03:37:04;101100.03;;;2.95;97.49
25238;BME280;13185;50.872;5.306;2024-03-08T03:39:30;101088.53;;;2.96;97.62
25238;BME280;13185;50.872;5.306;2024-03-08T03:42:14;101097.50;;;2.92;97.84
25238;BME280;13185;50.872;5.306;2024-03-08T03:44:40;101097.41;;;2.95;98.13
25238;BME280;13185;50.872;5.306;2024-03-08T03:47:05;101092.19;;;2.92;97.84
25238;BME280;13185;50.872;5.306;2024-03-08T03:49:32;101081.66;;;2.89;97.99
25238;BME280;13185;50.872;5.306;2024-03-08T03:51:58;101090.53;;;2.88;98.07
25238;BME280;13185;50.872;5.306;2024-03-08T03:54:24;101089.75;;;2.84;97.97
25238;BME280;13185;50.872;5.306;2024-03-08T03:56:49;101082.78;;;2.82;98.38
25238;BME280;13185;50.872;5.306;2024-03-08T03:59:18;101078.38;;;2.81;98.46
25238;BME280;13185;50.872;5.306;2024-03-08T04:01:44;101069.56;;;2.80;98.40
25238;BME280;13185;50.872;5.306;2024-03-08T04:04:10;101065.31;;;2.75;98.78
25238;BME280;13185;50.872;5.306;2024-03-08T04:06:37;101068.94;;;2.72;98.91
25238;BME280;13185;50.872;5.306;2024-03-08T04:09:03;101065.38;;;2.73;99.20
25238;BME280;13185;50.872;5.306;2024-03-08T04:11:30;101062.69;;;2.75;98.98
25238;BME280;13185;50.872;5.306;2024-03-08T04:13:55;101066.25;;;2.74;98.61
25238;BME280;13185;50.872;5.306;2024-03-08T04:16:21;101061.06;;;2.69;99.24
25238;BME280;13185;50.872;5.306;2024-03-08T04:18:47;101055.75;;;2.69;99.75
25238;BME280;13185;50.872;5.306;2024-03-08T04:21:13;101056.69;;;2.68;99.86
25238;BME280;13185;50.872;5.306;2024-03-08T04:23:38;101062.16;;;2.62;99.75
25238;BME280;13185;50.872;5.306;2024-03-08T04:26:04;101051.47;;;2.65;100.00
25238;BME280;13185;50.872;5.306;2024-03-08T04:28:31;101044.50;;;2.63;100.00
25238;BME280;13185;50.872;5.306;2024-03-08T04:30:57;101048.13;;;2.58;100.00
25238;BME280;13185;50.872;5.306;2024-03-08T04:33:22;101046.34;;;2.60;100.00
25238;BME280;13185;50.872;5.306;2024-03-08T04:35:49;101049.84;;;2.61;100.00
25238;BME280;13185;50.872;5.306;2024-03-08T04:38:14;101044.56;;;2.61;100.00
25238;BME280;13185;50.872;5.306;2024-03-08T04:40:41;101043.63;;;2.62;100.00
25238;BME280;13185;50.872;5.306;2024-03-08T04:43:07;101041.91;;;2.59;100.00
25238;BME280;13185;50.872;5.306;2024-03-08T04:45:34;101042.94;;;2.55;100.00
25238;BME280;13185;50.872;5.306;2024-03-08T04:47:59;101042.16;;;2.52;100.00
25238;BME280;13185;50.872;5.306;2024-03-08T04:50:25;101042.22;;;2.50;100.00
25238;BME280;13185;50.872;5.306;2024-03-08T04:52:51;101035.09;;;2.52;100.00
25238;BME280;13185;50.872;5.306;2024-03-08T04:55:16;101027.22;;;2.49;100.00
25238;BME280;13185;50.872;5.306;2024-03-08T04:57:42;101032.59;;;2.46;100.00
25238;BME280;13185;50.872;5.306;2024-03-08T05:00:10;101021.19;;;2.44;100.00
25238;BME280;13185;50.872;5.306;2024-03-08T05:02:39;101024.59;;;2.48;100.00
25238;BME280;13185;50.872;5.306;2024-03-08T05:05:05;101021.91;;;2.51;100.00
25238;BME280;13185;50.872;5.306;2024-03-08T05:07:31;101021.91;;;2.49;100.00
25238;BME280;13185;50.872;5.306;2024-03-08T05:09:58;101028.22;;;2.45;100.00
25238;BME280;13185;50.872;5.306;2024-03-08T05:12:24;101026.59;;;2.41;100.00
25238;BME280;13185;50.872;5.306;2024-03-08T05:14:50;101018.75;;;2.37;100.00
25238;BME280;13185;50.872;5.306;2024-03-08T05:17:16;101015.25;;;2.36;100.00
25238;BME280;13185;50.872;5.306;2024-03-08T05:19:44;101023.22;;;2.35;100.00
25238;BME280;13185;50.872;5.306;2024-03-08T05:22:09;101008.38;;;2.30;100.00
25238;BME280;13185;50.872;5.306;2024-03-08T05:24:35;101002.28;;;2.27;100.00
25238;BME280;13185;50.872;5.306;2024-03-08T05:27:01;101000.63;;;2.23;100.00
25238;BME280;13185;50.872;5.306;2024-03-08T05:29:28;100991.84;;;2.22;100.00
25238;BME280;13185;50.872;5.306;2024-03-08T05:31:54;100990.09;;;2.21;100.00
25238;BME280;13185;50.872;5.306;2024-03-08T05:34:20;100994.56;;;2.19;100.00
25238;BME280;13185;50.872;5.306;2024-03-08T05:36:47;100986.66;;;2.18;100.00
25238;BME280;13185;50.872;5.306;2024-03-08T05:39:18;100990.16;;;2.18;100.00
25238;BME280;13185;50.872;5.306;2024-03-08T05:41:45;100982.22;;;2.18;100.00
25238;BME280;13185;50.872;5.306;2024-03-08T05:44:11;100986.69;;;2.16;100.00
25238;BME280;13185;50.872;5.306;2024-03-08T05:46:37;100979.63;;;2.17;100.00
25238;BME280;13185;50.872;5.306;2024-03-08T05:49:04;100975.28;;;2.14;100.00
25238;BME280;13185;50.872;5.306;2024-03-08T05:51:34;100976.13;;;2.16;100.00
25238;BME280;13185;50.872;5.306;2024-03-08T05:54:03;100979.56;;;2.20;100.00
25238;BME280;13185;50.872;5.306;2024-03-08T05:56:32;100980.38;;;2.22;100.00
25238;BME280;13185;50.872;5.306;2024-03-08T05:58:58;100977.78;;;2.19;100.00
25238;BME280;13185;50.872;5.306;2024-03-08T06:01:24;100977.91;;;2.16;100.00
25238;BME280;13185;50.872;5.306;2024-03-08T06:03:50;100961.09;;;2.17;100.00
25238;BME280;13185;50.872;5.306;2024-03-08T06:06:16;100967.22;;;2.19;100.00
25238;BME280;13185;50.872;5.306;2024-03-08T06:08:43;100964.66;;;2.16;100.00
25238;BME280;13185;50.872;5.306;2024-03-08T06:11:09;100963.69;;;2.18;100.00
25238;BME280;13185;50.872;5.306;2024-03-08T06:13:35;100962.81;;;2.19;100.00
25238;BME280;13185;50.872;5.306;2024-03-08T06:16:01;100953.97;;;2.20;100.00
25238;BME280;13185;50.872;5.306;2024-03-08T06:18:32;100956.72;;;2.16;100.00
25238;BME280;13185;50.872;5.306;2024-03-08T06:20:58;100959.41;;;2.14;100.00
25238;BME280;13185;50.872;5.306;2024-03-08T06:23:23;100963.78;;;2.15;100.00
25238;BME280;13185;50.872;5.306;2024-03-08T06:25:49;100961.19;;;2.14;100.00
25238;BME280;13185;50.872;5.306;2024-03-08T06:28:14;100955.81;;;2.17;100.00
25238;BME280;13185;50.872;5.306;2024-03-08T06:30:40;100962.84;;;2.18;100.00
25238;BME280;13185;50.872;5.306;2024-03-08T06:33:06;100959.28;;;2.19;100.00
25238;BME280;13185;50.872;5.306;2024-03-08T06:35:36;100962.78;;;2.21;100.00
25238;BME280;13185;50.872;5.306;2024-03-08T06:38:04;100956.50;;;2.23;100.00
25238;BME280;13185;50.872;5.306;2024-03-08T06:40:29;100959.09;;;2.25;100.00
25238;BME280;13185;50.872;5.306;2024-03-08T06:42:55;100950.16;;;2.29;100.00
25238;BME280;13185;50.872;5.306;2024-03-08T06:45:20;100957.16;;;2.31;100.00
25238;BME280;13185;50.872;5.306;2024-03-08T06:47:47;100949.28;;;2.30;100.00
25238;BME280;13185;50.872;5.306;2024-03-08T06:50:13;100951.88;;;2.31;100.00
25238;BME280;13185;50.872;5.306;2024-03-08T06:52:41;100940.38;;;2.33;100.00
25238;BME280;13185;50.872;5.306;2024-03-08T06:55:08;100944.69;;;2.35;100.00
25238;BME280;13185;50.872;5.306;2024-03-08T06:57:40;100949.03;;;2.38;100.00
25238;BME280;13185;50.872;5.306;2024-03-08T07:00:09;100942.75;;;2.42;100.00
25238;BME280;13185;50.872;5.306;2024-03-08T07:02:36;100944.44;;;2.44;100.00
25238;BME280;13185;50.872;5.306;2024-03-08T07:05:02;100945.28;;;2.45;100.00
25238;BME280;13185;50.872;5.306;2024-03-08T07:07:29;100930.09;;;2.51;100.00
25238;BME280;13185;50.872;5.306;2024-03-08T07:09:55;100934.31;;;2.57;100.00
25238;BME280;13185;50.872;5.306;2024-03-08T07:12:22;100928.06;;;2.59;100.00
25238;BME280;13185;50.872;5.306;2024-03-08T07:14:49;100931.44;;;2.65;100.00
25238;BME280;13185;50.872;5.306;2024-03-08T07:17:14;100926.06;;;2.68;100.00
25238;BME280;13185;50.872;5.306;2024-03-08T07:19:41;100924.19;;;2.71;100.00
25238;BME280;13185;50.872;5.306;2024-03-08T07:22:07;100917.06;;;2.73;100.00
25238;BME280;13185;50.872;5.306;2024-03-08T07:24:35;100918.75;;;2.76;100.00
25238;BME280;13185;50.872;5.306;2024-03-08T07:27:17;100912.34;;;2.83;100.00
25238;BME280;13185;50.872;5.306;2024-03-08T07:29:43;100899.91;;;2.85;100.00
25238;BME280;13185;50.872;5.306;2024-03-08T07:32:08;100898.94;;;2.87;100.00
25238;BME280;13185;50.872;5.306;2024-03-08T07:34:48;100883.84;;;2.89;100.00
25238;BME280;13185;50.872;5.306;2024-03-08T07:37:16;100885.41;;;2.97;100.00
25238;BME280;13185;50.872;5.306;2024-03-08T07:39:41;100891.38;;;3.02;100.00
25238;BME280;13185;50.872;5.306;2024-03-08T07:42:09;100888.72;;;3.03;100.00
25238;BME280;13185;50.872;5.306;2024-03-08T07:44:36;100879.63;;;3.10;100.00
25238;BME280;13185;50.872;5.306;2024-03-08T07:47:01;100882.19;;;3.13;100.00
25238;BME280;13185;50.872;5.306;2024-03-08T07:49:27;100877.66;;;3.17;100.00
25238;BME280;13185;50.872;5.306;2024-03-08T07:51:52;100886.34;;;3.21;100.00
25238;BME280;13185;50.872;5.306;2024-03-08T07:54:18;100880.84;;;3.27;100.00
25238;BME280;13185;50.872;5.306;2024-03-08T07:56:43;100876.25;;;3.32;100.00
25238;BME280;13185;50.872;5.306;2024-03-08T07:59:09;100875.19;;;3.37;100.00
25238;BME280;13185;50.872;5.306;2024-03-08T08:01:37;100867.16;;;3.39;99.59
25238;BME280;13185;50.872;5.306;2024-03-08T08:04:03;100864.13;;;3.50;99.83
25238;BME280;13185;50.872;5.306;2024-03-08T08:06:29;100870.16;;;3.55;98.60
25238;BME280;13185;50.872;5.306;2024-03-08T08:08:59;100869.13;;;3.59;97.55
25238;BME280;13185;50.872;5.306;2024-03-08T08:11:27;100867.22;;;3.62;97.27
25238;BME280;13185;50.872;5.306;2024-03-08T08:13:54;100861.75;;;3.67;97.28
25238;BME280;13185;50.872;5.306;2024-03-08T08:16:22;100849.19;;;3.72;97.42
25238;BME280;13185;50.872;5.306;2024-03-08T08:18:48;100860.31;;;3.82;97.09
25238;BME280;13185;50.872;5.306;2024-03-08T08:21:14;100846.03;;;3.86;96.89
25238;BME280;13185;50.872;5.306;2024-03-08T08:23:39;100839.63;;;3.91;97.67
25238;BME280;13185;50.872;5.306;2024-03-08T08:26:05;100834.13;;;3.96;95.61
25238;BME280;13185;50.872;5.306;2024-03-08T08:28:33;100833.97;;;4.00;95.63
25238;BME280;13185;50.872;5.306;2024-03-08T08:30:58;100830.25;;;4.04;95.72
25238;BME280;13185;50.872;5.306;2024-03-08T08:33:25;100826.53;;;4.10;94.24
25238;BME280;13185;50.872;5.306;2024-03-08T08:35:51;100824.72;;;4.11;92.58
25238;BME280;13185;50.872;5.306;2024-03-08T08:38:19;100829.84;;;4.15;93.17
25238;BME280;13185;50.872;5.306;2024-03-08T08:40:45;100808.50;;;4.18;92.05
25238;BME280;13185;50.872;5.306;2024-03-08T08:43:14;100818.78;;;4.27;92.45
25238;BME280;13185;50.872;5.306;2024-03-08T08:45:40;100817.59;;;4.34;91.97
25238;BME280;13185;50.872;5.306;2024-03-08T08:48:06;100806.66;;;4.42;91.12
25238;BME280;13185;50.872;5.306;2024-03-08T08:50:32;100813.63;;;4.45;91.36
25238;BME280;13185;50.872;5.306;2024-03-08T08:52:57;100806.28;;;4.51;90.64
25238;BME280;13185;50.872;5.306;2024-03-08T08:55:23;100805.22;;;4.55;89.35
25238;BME280;13185;50.872;5.306;2024-03-08T08:57:52;100800.47;;;4.63;90.04
25238;BME280;13185;50.872;5.306;2024-03-08T09:00:19;100807.34;;;4.69;89.97
25238;BME280;13185;50.872;5.306;2024-03-08T09:02:45;100789.47;;;4.73;89.99
25238;BME280;13185;50.872;5.306;2024-03-08T09:05:12;100797.13;;;4.80;90.20
25238;BME280;13185;50.872;5.306;2024-03-08T09:07:40;100795.13;;;4.85;88.43
25238;BME280;13185;50.872;5.306;2024-03-08T09:10:06;100793.19;;;4.89;88.89
25238;BME280;13185;50.872;5.306;2024-03-08T09:12:31;100791.28;;;4.92;88.26
25238;BME280;13185;50.872;5.306;2024-03-08T09:14:58;100789.03;;;5.04;87.59
25238;BME280;13185;50.872;5.306;2024-03-08T09:17:24;100777.41;;;5.06;85.81
25238;BME280;13185;50.872;5.306;2024-03-08T09:19:51;100769.34;;;5.08;86.35
25238;BME280;13185;50.872;5.306;2024-03-08T09:22:16;100772.63;;;5.14;85.65
25238;BME280;13185;50.872;5.306;2024-03-08T09:24:43;100765.25;;;5.21;86.66
25238;BME280;13185;50.872;5.306;2024-03-08T09:27:09;100750.75;;;5.28;86.53
25238;BME280;13185;50.872;5.306;2024-03-08T09:29:36;100753.13;;;5.34;85.64
25238;BME280;13185;50.872;5.306;2024-03-08T09:32:01;100741.50;;;5.37;84.62
25238;BME280;13185;50.872;5.306;2024-03-08T09:34:27;100748.47;;;5.39;83.85
25238;BME280;13185;50.872;5.306;2024-03-08T09:36:52;100732.22;;;5.45;84.60
25238;BME280;13185;50.872;5.306;2024-03-08T09:39:19;100737.00;;;5.58;84.38
25238;BME280;13185;50.872;5.306;2024-03-08T09:41:46;100725.13;;;5.65;84.70
25238;BME280;13185;50.872;5.306;2024-03-08T09:44:15;100722.09;;;5.72;83.35
25238;BME280;13185;50.872;5.306;2024-03-08T09:46:42;100724.72;;;5.74;82.33
25238;BME280;13185;50.872;5.306;2024-03-08T09:49:08;100719.25;;;5.77;82.62
25238;BME280;13185;50.872;5.306;2024-03-08T09:51:34;100717.28;;;5.80;82.00
25238;BME280;13185;50.872;5.306;2024-03-08T09:54:02;100712.47;;;5.89;82.89
25238;BME280;13185;50.872;5.306;2024-03-08T09:56:32;100712.34;;;5.92;80.77
25238;BME280;13185;50.872;5.306;2024-03-08T09:58:58;100712.34;;;5.92;80.44
25238;BME280;13185;50.872;5.306;2024-03-08T10:01:42;100710.25;;;5.98;81.47
25238;BME280;13185;50.872;5.306;2024-03-08T10:04:09;100701.06;;;6.05;80.95
25238;BME280;13185;50.872;5.306;2024-03-08T10:06:35;100698.06;;;6.12;79.67
25238;BME280;13185;50.872;5.306;2024-03-08T10:09:02;100697.88;;;6.16;79.99
25238;BME280;13185;50.872;5.306;2024-03-08T10:11:27;100695.53;;;6.27;80.79
25238;BME280;13185;50.872;5.306;2024-03-08T10:13:54;100680.16;;;6.32;79.54
25238;BME280;13185;50.872;5.306;2024-03-08T10:16:20;100675.69;;;6.33;78.38
25238;BME280;13185;50.872;5.306;2024-03-08T10:18:46;100671.97;;;6.37;78.82
25238;BME280;13185;50.872;5.306;2024-03-08T10:21:11;100668.19;;;6.41;79.55
25238;BME280;13185;50.872;5.306;2024-03-08T10:23:39;100676.59;;;6.51;79.93
25238;BME280;13185;50.872;5.306;2024-03-08T10:26:12;100667.09;;;6.62;80.79
25238;BME280;13185;50.872;5.306;2024-03-08T10:28:44;100669.53;;;6.67;79.12
25238;BME280;13185;50.872;5.306;2024-03-08T10:31:10;100665.69;;;6.73;79.19
25238;BME280;13185;50.872;5.306;2024-03-08T10:33:35;100654.72;;;6.79;79.58
25238;BME280;13185;50.872;5.306;2024-03-08T10:36:03;100656.81;;;6.89;79.85
25238;BME280;13185;50.872;5.306;2024-03-08T10:38:31;100657.34;;;6.96;78.90
25238;BME280;13185;50.872;5.306;2024-03-08T10:41:01;100651.00;;;6.99;77.66
25238;BME280;13185;50.872;5.306;2024-03-08T10:43:32;100645.41;;;7.03;78.23
25238;BME280;13185;50.872;5.306;2024-03-08T10:46:09;100635.44;;;7.07;77.28
25238;BME280;13185;50.872;5.306;2024-03-08T10:48:43;100638.72;;;7.12;77.25
25238;BME280;13185;50.872;5.306;2024-03-08T10:51:11;100642.72;;;7.20;78.17
25238;BME280;13185;50.872;5.306;2024-03-08T10:53:38;100641.50;;;7.26;79.08
25238;BME280;13185;50.872;5.306;2024-03-08T10:56:07;100636.44;;;7.37;78.36
25238;BME280;13185;50.872;5.306;2024-03-08T10:58:34;100631.81;;;7.41;76.67
25238;BME280;13185;50.872;5.306;2024-03-08T11:01:00;100628.97;;;7.44;76.35
25238;BME280;13185;50.872;5.306;2024-03-08T11:08:42;100612.09;;;7.59;76.01
25238;BME280;13185;50.872;5.306;2024-03-08T11:11:31;100600.22;;;7.65;76.10
25238;BME280;13185;50.872;5.306;2024-03-08T11:13:57;100604.19;;;7.73;77.18
25238;BME280;13185;50.872;5.306;2024-03-08T11:19:00;100587.88;;;7.94;77.81
25238;BME280;13185;50.872;5.306;2024-03-08T11:21:32;100593.69;;;8.00;76.94
25238;BME280;13185;50.872;5.306;2024-03-08T11:24:14;100585.44;;;8.05;75.75
25238;BME280;13185;50.872;5.306;2024-03-08T11:26:42;100582.47;;;8.09;75.47
25238;BME280;13185;50.872;5.306;2024-03-08T11:32:19;100558.31;;;8.27;75.61
25238;BME280;13185;50.872;5.306;2024-03-08T11:34:48;100566.88;;;8.32;75.05
25238;BME280;13185;50.872;5.306;2024-03-08T11:37:17;100572.66;;;8.40;75.42
25238;BME280;13185;50.872;5.306;2024-03-08T11:40:02;100570.41;;;8.48;76.17
25238;BME280;13185;50.872;5.306;2024-03-08T11:42:30;100560.88;;;8.58;77.36
25238;BME280;13185;50.872;5.306;2024-03-08T11:44:56;100554.22;;;8.65;75.48
25238;BME280;13185;50.872;5.306;2024-03-08T11:47:23;100547.50;;;8.73;72.73
25238;BME280;13185;50.872;5.306;2024-03-08T11:49:49;100552.28;;;8.82;73.27
25238;BME280;13185;50.872;5.306;2024-03-08T11:52:16;100550.84;;;8.90;73.47
25238;BME280;13185;50.872;5.306;2024-03-08T11:54:43;100547.81;;;8.96;71.92
25238;BME280;13185;50.872;5.306;2024-03-08T11:57:13;100533.94;;;9.04;73.40
25238;BME280;13185;50.872;5.306;2024-03-08T11:59:38;100526.06;;;9.15;72.39
25238;BME280;13185;50.872;5.306;2024-03-08T12:02:05;100523.56;;;9.26;72.77
25238;BME280;13185;50.872;5.306;2024-03-08T12:04:31;100521.47;;;9.32;72.44
25238;BME280;13185;50.872;5.306;2024-03-08T12:07:00;100524.69;;;9.37;71.32
25238;BME280;13185;50.872;5.306;2024-03-08T12:09:35;100517.97;;;9.44;72.07
25238;BME280;13185;50.872;5.306;2024-03-08T12:12:02;100521.97;;;9.51;69.98
25238;BME280;13185;50.872;5.306;2024-03-08T12:14:30;100499.41;;;9.55;70.07
25238;BME280;13185;50.872;5.306;2024-03-08T12:16:57;100497.94;;;9.64;69.49
25238;BME280;13185;50.872;5.306;2024-03-08T12:19:23;100492.94;;;9.72;68.01
25238;BME280;13185;50.872;5.306;2024-03-08T12:21:48;100502.81;;;9.84;67.33
25238;BME280;13185;50.872;5.306;2024-03-08T12:24:16;100489.22;;;10.00;67.26
25238;BME280;13185;50.872;5.306;2024-03-08T12:26:45;100483.47;;;10.06;67.30
25238;BME280;13185;50.872;5.306;2024-03-08T12:29:26;100477.47;;;10.15;64.16
25238;BME280;13185;50.872;5.306;2024-03-08T12:31:58;100472.59;;;10.22;65.60
25238;BME280;13185;50.872;5.306;2024-03-08T12:34:26;100462.59;;;10.36;66.45
25238;BME280;13185;50.872;5.306;2024-03-08T12:36:53;100459.69;;;10.39;66.31
25238;BME280;13185;50.872;5.306;2024-03-08T12:39:23;100455.53;;;10.48;67.41
25238;BME280;13185;50.872;5.306;2024-03-08T12:41:56;100455.84;;;10.56;66.55
25238;BME280;13185;50.872;5.306;2024-03-08T12:44:28;100455.38;;;10.62;67.14
25238;BME280;13185;50.872;5.306;2024-03-08T12:46:54;100454.09;;;10.68;66.47
25238;BME280;13185;50.872;5.306;2024-03-08T12:49:20;100444.84;;;10.72;65.29
25238;BME280;13185;50.872;5.306;2024-03-08T12:51:48;100443.47;;;10.79;65.55
25238;BME280;13185;50.872;5.306;2024-03-08T12:54:14;100433.03;;;10.87;66.34
25238;BME280;13185;50.872;5.306;2024-03-08T12:56:39;100433.34;;;10.95;64.38
25238;BME280;13185;50.872;5.306;2024-03-08T12:59:08;100429.34;;;11.01;63.81
25238;BME280;13185;50.872;5.306;2024-03-08T13:01:34;100419.75;;;11.10;65.31
25238;BME280;13185;50.872;5.306;2024-03-08T13:04:03;100418.22;;;11.18;64.93
25238;BME280;13185;50.872;5.306;2024-03-08T13:06:29;100409.94;;;11.21;63.17
25238;BME280;13185;50.872;5.306;2024-03-08T13:08:56;100403.28;;;11.27;63.78